This is the latest recevied weather packets stored in our database for station/object NN5DX-13. If no packets are shown the sender has not sent any weather packets the latest 10 day(s).
| Time | Temp. | Humidity | Pressure | Rain* | Wind** | Luminosity | Snow |
|---|---|---|---|---|---|---|---|
| 1777750218 | 20° C | 42% | 1023.1 hPa | 0 mm | - | - | - |
| 1777749917 | 20° C | 39% | 1023.2 hPa | 0 mm | - | - | - |
| 1777749617 | 19.44° C | 40% | 1023.2 hPa | 0 mm | - | - | - |
| 1777749317 | 18.89° C | 42% | 1023.1 hPa | 0 mm | - | - | - |
| 1777749017 | 18.89° C | 41% | 1023.2 hPa | 0 mm | - | - | - |
| 1777748717 | 19.44° C | 40% | 1023.4 hPa | 0 mm | - | - | - |
| 1777748418 | 19.44° C | 42% | 1023.4 hPa | 0 mm | - | - | - |
| 1777748117 | 20° C | 40% | 1023.7 hPa | 0 mm | - | - | - |
| 1777747817 | 18.89° C | 41% | 1023.5 hPa | 0 mm | - | - | - |
| 1777747517 | 19.44° C | 41% | 1023.8 hPa | 0 mm | - | - | - |
| 1777747217 | 19.44° C | 43% | 1023.9 hPa | 0 mm | - | - | - |
| 1777746917 | 19.44° C | 42% | 1024 hPa | 0 mm | - | - | - |
| 1777746617 | 19.44° C | 43% | 1024.1 hPa | 0 mm | - | - | - |
| 1777746317 | 19.44° C | 44% | 1024.1 hPa | 0 mm | - | - | - |
| 1777746017 | 18.89° C | 44% | 1024.4 hPa | 0 mm | - | - | - |
| 1777745717 | 18.89° C | 46% | 1024.2 hPa | 0 mm | - | - | - |
| 1777745417 | 18.33° C | 47% | 1024.2 hPa | 0 mm | - | - | - |
| 1777745117 | 17.78° C | 46% | 1024.2 hPa | 0 mm | - | - | - |
| 1777744817 | 17.78° C | 49% | 1024.3 hPa | 0 mm | - | - | - |
| 1777744517 | 17.78° C | 48% | 1024.3 hPa | 0 mm | - | - | - |
| 1777744217 | 18.33° C | 46% | 1024.5 hPa | 0 mm | - | - | - |
| 1777743917 | 18.33° C | 46% | 1024.5 hPa | 0 mm | - | - | - |
| 1777743617 | 18.33° C | 49% | 1024.6 hPa | 0 mm | - | - | - |
| 1777743317 | 17.78° C | 49% | 1024.7 hPa | 0 mm | - | - | - |
| 1777743017 | 17.78° C | 48% | 1024.8 hPa | 0 mm | - | - | - |
* Rain latest hour (hover to see other rain measurements)
** Current wind speed in m/s (hover to see current wind gust speed)